createdAt,value
2017-03-02T00:00:03.703Z,6
2017-03-02T00:00:08.376Z,6
2017-03-02T00:00:12.733Z,6
2017-03-02T00:00:17.103Z,6.01
2017-03-02T00:00:21.755Z,6.01
2017-03-02T00:00:26.233Z,6
2017-03-02T00:00:30.742Z,6.01
2017-03-02T00:00:35.113Z,6.01
2017-03-02T00:00:39.603Z,6.01
2017-03-02T00:00:44.265Z,6.01
2017-03-02T00:00:48.814Z,6.01
2017-03-02T00:00:53.325Z,6
2017-03-02T00:00:57.805Z,6.01
2017-03-02T00:01:02.452Z,6
2017-03-02T00:01:07.093Z,6.01
2017-03-02T00:01:11.770Z,6
2017-03-02T00:01:16.440Z,6.01
2017-03-02T00:01:20.929Z,6
2017-03-02T00:01:25.282Z,6
2017-03-02T00:01:29.811Z,6
2017-03-02T00:01:34.327Z,6
2017-03-02T00:01:38.972Z,6
2017-03-02T00:01:43.325Z,6.01
2017-03-02T00:01:47.820Z,6.01
2017-03-02T00:01:52.463Z,5.99
2017-03-02T00:01:57.116Z,6
2017-03-02T00:02:01.919Z,6
2017-03-02T00:02:06.429Z,6
2017-03-02T00:02:10.924Z,6
2017-03-02T00:02:15.608Z,6
2017-03-02T00:02:20.248Z,6
2017-03-02T00:02:24.599Z,5.99
2017-03-02T00:02:29.000Z,5.99
2017-03-02T00:02:33.628Z,6
2017-03-02T00:02:38.126Z,5.99
2017-03-02T00:02:42.506Z,5.99
2017-03-02T00:02:46.999Z,5.99
2017-03-02T00:02:51.653Z,6
2017-03-02T00:02:56.175Z,5.99
2017-03-02T00:03:00.820Z,6
2017-03-02T00:03:05.775Z,6
2017-03-02T00:03:10.434Z,6
2017-03-02T00:03:15.082Z,6
2017-03-02T00:03:19.710Z,6
2017-03-02T00:03:24.255Z,6
2017-03-02T00:03:28.609Z,6
2017-03-02T00:03:33.261Z,6
2017-03-02T00:03:37.810Z,6
2017-03-02T00:03:42.294Z,5.99
2017-03-02T00:03:46.802Z,6
2017-03-02T00:03:51.451Z,6
2017-03-02T00:03:56.091Z,6
2017-03-02T00:04:00.767Z,6
2017-03-02T00:04:05.650Z,6
2017-03-02T00:04:10.309Z,6
2017-03-02T00:04:14.943Z,5.99
2017-03-02T00:04:19.602Z,6
2017-03-02T00:04:24.260Z,6
2017-03-02T00:04:28.911Z,5.99
2017-03-02T00:04:33.585Z,5.99
2017-03-02T00:04:38.096Z,5.99
2017-03-02T00:04:42.743Z,5.99
2017-03-02T00:04:47.391Z,5.99
2017-03-02T00:04:51.881Z,6
2017-03-02T00:04:56.531Z,5.99
2017-03-02T00:05:01.177Z,6
2017-03-02T00:05:05.682Z,5.99
2017-03-02T00:05:10.326Z,6
2017-03-02T00:05:14.981Z,6
2017-03-02T00:05:19.629Z,5.99
2017-03-02T00:05:24.282Z,6
2017-03-02T00:05:28.775Z,6
2017-03-02T00:05:33.425Z,6
2017-03-02T00:05:37.965Z,6
2017-03-02T00:05:42.622Z,6
2017-03-02T00:05:47.264Z,5.99
2017-03-02T00:05:51.659Z,6
2017-03-02T00:05:56.312Z,6.01
2017-03-02T00:06:00.950Z,6.01
2017-03-02T00:06:05.839Z,6
2017-03-02T00:06:10.324Z,6
2017-03-02T00:06:14.960Z,6
2017-03-02T00:06:19.620Z,6
2017-03-02T00:06:24.138Z,6
2017-03-02T00:06:28.624Z,5.99
2017-03-02T00:06:33.136Z,6
2017-03-02T00:06:37.625Z,6
2017-03-02T00:06:42.283Z,6
2017-03-02T00:06:46.931Z,5.99
2017-03-02T00:06:51.421Z,5.99
2017-03-02T00:06:55.918Z,5.99
2017-03-02T00:07:00.567Z,5.98
2017-03-02T00:07:05.405Z,5.98
2017-03-02T00:07:09.922Z,5.99
2017-03-02T00:07:14.570Z,5.99
2017-03-02T00:07:19.202Z,6
2017-03-02T00:07:23.540Z,5.99
2017-03-02T00:07:28.192Z,6
2017-03-02T00:07:32.847Z,6
2017-03-02T00:07:37.501Z,5.99
2017-03-02T00:07:42.157Z,6
2017-03-02T00:07:46.519Z,6
2017-03-02T00:07:51.014Z,6
2017-03-02T00:07:55.506Z,6
2017-03-02T00:08:00.153Z,6.01
2017-03-02T00:08:04.935Z,6
2017-03-02T00:08:09.603Z,6
2017-03-02T00:08:14.241Z,6
2017-03-02T00:08:18.739Z,6
2017-03-02T00:08:23.393Z,6
2017-03-02T00:08:28.061Z,6
2017-03-02T00:08:32.706Z,6
2017-03-02T00:08:37.205Z,6
2017-03-02T00:08:41.562Z,6
2017-03-02T00:08:46.082Z,6
2017-03-02T00:08:50.748Z,6
2017-03-02T00:08:55.389Z,6
2017-03-02T00:09:00.061Z,6.01
2017-03-02T00:09:04.958Z,6.01
2017-03-02T00:09:09.608Z,6.01
2017-03-02T00:09:14.102Z,6.01
2017-03-02T00:09:18.768Z,6.01
2017-03-02T00:09:23.259Z,6.01
2017-03-02T00:09:27.775Z,6.01
2017-03-02T00:09:32.259Z,6
2017-03-02T00:09:36.899Z,6
2017-03-02T00:09:41.541Z,6
2017-03-02T00:09:46.188Z,6
2017-03-02T00:09:50.560Z,6
2017-03-02T00:09:54.893Z,6
2017-03-02T00:09:59.549Z,6
2017-03-02T00:10:04.051Z,5.99
2017-03-02T00:10:08.541Z,6
2017-03-02T00:10:13.208Z,6
2017-03-02T00:10:17.555Z,6
2017-03-02T00:10:22.051Z,6
2017-03-02T00:10:26.701Z,6.01
2017-03-02T00:10:31.357Z,6
2017-03-02T00:10:36.017Z,6.01
2017-03-02T00:10:40.523Z,6
2017-03-02T00:10:45.153Z,6
2017-03-02T00:10:49.662Z,6.01
2017-03-02T00:10:54.041Z,6
2017-03-02T00:10:58.689Z,6
2017-03-02T00:11:03.342Z,5.99
2017-03-02T00:11:07.998Z,5.99
2017-03-02T00:11:12.665Z,6
2017-03-02T00:11:17.320Z,5.99
2017-03-02T00:11:21.979Z,5.99
2017-03-02T00:11:26.676Z,6
2017-03-02T00:11:31.155Z,5.99
2017-03-02T00:11:35.663Z,5.99
2017-03-02T00:11:40.319Z,5.99
2017-03-02T00:11:44.830Z,5.99
2017-03-02T00:11:49.345Z,5.98
2017-03-02T00:11:53.860Z,5.99
2017-03-02T00:11:58.348Z,5.99
2017-03-02T00:12:02.998Z,5.99
2017-03-02T00:12:07.654Z,6
2017-03-02T00:12:12.317Z,5.99
2017-03-02T00:12:16.986Z,5.99
2017-03-02T00:12:21.485Z,5.98
2017-03-02T00:12:26.161Z,5.99
2017-03-02T00:12:30.668Z,5.99
2017-03-02T00:12:35.317Z,6
2017-03-02T00:12:39.976Z,6
2017-03-02T00:12:44.348Z,5.99
2017-03-02T00:12:48.828Z,5.99
2017-03-02T00:12:53.331Z,6
2017-03-02T00:12:57.984Z,6
2017-03-02T00:13:02.621Z,5.99
2017-03-02T00:13:07.283Z,6
2017-03-02T00:13:11.944Z,5.99
2017-03-02T00:13:16.605Z,5.99
2017-03-02T00:13:21.241Z,5.99
2017-03-02T00:13:25.887Z,5.98
2017-03-02T00:13:30.548Z,5.98
2017-03-02T00:13:35.087Z,5.99
2017-03-02T00:13:39.726Z,5.98
2017-03-02T00:13:44.365Z,5.98
2017-03-02T00:13:49.033Z,5.99
2017-03-02T00:13:53.390Z,5.98
2017-03-02T00:13:58.042Z,5.99
2017-03-02T00:14:02.725Z,5.99
2017-03-02T00:14:07.057Z,6
2017-03-02T00:14:11.691Z,5.99
2017-03-02T00:14:16.197Z,6
2017-03-02T00:14:20.830Z,6
2017-03-02T00:14:25.349Z,6.01
2017-03-02T00:14:29.992Z,6.01
2017-03-02T00:14:34.661Z,6
2017-03-02T00:14:39.159Z,6
2017-03-02T00:14:43.831Z,6
2017-03-02T00:14:48.487Z,6
2017-03-02T00:14:53.129Z,6
2017-03-02T00:14:57.474Z,6
2017-03-02T00:15:02.158Z,6
2017-03-02T00:15:06.514Z,6
2017-03-02T00:15:11.165Z,6
2017-03-02T00:15:15.811Z,6.01
2017-03-02T00:15:20.452Z,6
2017-03-02T00:15:25.100Z,6.01
2017-03-02T00:15:29.765Z,6.01
2017-03-02T00:15:34.436Z,6
2017-03-02T00:15:38.958Z,6
2017-03-02T00:15:43.605Z,6.01
2017-03-02T00:15:48.089Z,6.01
2017-03-02T00:15:52.459Z,6
2017-03-02T00:15:56.956Z,6.01
2017-03-02T00:16:01.620Z,6
2017-03-02T00:16:06.257Z,6.01
2017-03-02T00:16:10.894Z,6
2017-03-02T00:16:15.544Z,5.99
2017-03-02T00:16:19.894Z,6
2017-03-02T00:16:24.529Z,6
2017-03-02T00:16:29.185Z,6.01
2017-03-02T00:16:33.681Z,6
2017-03-02T00:16:38.336Z,6
2017-03-02T00:16:42.831Z,6
2017-03-02T00:16:47.463Z,6
2017-03-02T00:16:51.814Z,6
2017-03-02T00:16:56.451Z,5.99
2017-03-02T00:17:01.113Z,6
2017-03-02T00:17:05.880Z,6
2017-03-02T00:17:10.541Z,6.01
2017-03-02T00:17:15.190Z,6.01
2017-03-02T00:17:19.839Z,6
2017-03-02T00:17:24.212Z,6
2017-03-02T00:17:28.698Z,6
2017-03-02T00:17:33.364Z,6
2017-03-02T00:17:37.998Z,6
2017-03-02T00:17:42.637Z,6
2017-03-02T00:17:47.162Z,6
2017-03-02T00:17:51.657Z,5.99
2017-03-02T00:17:56.289Z,6
2017-03-02T00:18:00.981Z,6
2017-03-02T00:18:05.980Z,6
2017-03-02T00:18:10.484Z,5.99
2017-03-02T00:18:15.147Z,5.99
2017-03-02T00:18:19.804Z,6
2017-03-02T00:18:24.440Z,5.99
2017-03-02T00:18:28.942Z,6
2017-03-02T00:18:33.601Z,6
2017-03-02T00:18:38.269Z,6
2017-03-02T00:18:42.967Z,6
2017-03-02T00:18:47.484Z,6
2017-03-02T00:18:51.840Z,6
2017-03-02T00:18:56.499Z,5.98
2017-03-02T00:19:01.025Z,6
2017-03-02T00:19:05.767Z,6
2017-03-02T00:19:10.413Z,6
2017-03-02T00:19:15.056Z,6
2017-03-02T00:19:19.694Z,6
2017-03-02T00:19:24.361Z,6
2017-03-02T00:19:29.011Z,6
2017-03-02T00:19:33.667Z,6
2017-03-02T00:19:38.321Z,6.01
2017-03-02T00:19:42.986Z,5.99
2017-03-02T00:19:47.633Z,6
2017-03-02T00:19:51.971Z,5.99
2017-03-02T00:19:56.473Z,6
2017-03-02T00:20:00.981Z,5.99
2017-03-02T00:20:05.625Z,6
2017-03-02T00:20:10.261Z,6.01
2017-03-02T00:20:14.906Z,5.99
2017-03-02T00:20:19.546Z,6
2017-03-02T00:20:24.236Z,6
2017-03-02T00:20:28.731Z,6
2017-03-02T00:20:33.376Z,6
2017-03-02T00:20:37.736Z,6
2017-03-02T00:20:42.417Z,6
2017-03-02T00:20:47.053Z,6
2017-03-02T00:20:51.681Z,6
2017-03-02T00:20:56.323Z,6.01
2017-03-02T00:21:00.828Z,6.01
2017-03-02T00:21:05.517Z,6.02
2017-03-02T00:21:10.203Z,6.01
2017-03-02T00:21:14.711Z,6.01
2017-03-02T00:21:19.353Z,6.01
2017-03-02T00:21:23.865Z,6.01
2017-03-02T00:21:28.513Z,6.01
2017-03-02T00:21:33.143Z,6.01
2017-03-02T00:21:37.806Z,6.01
2017-03-02T00:21:42.323Z,6
2017-03-02T00:21:46.975Z,6.01
2017-03-02T00:21:51.636Z,6
2017-03-02T00:21:56.279Z,6.01
2017-03-02T00:22:00.927Z,6.01
2017-03-02T00:22:05.931Z,6.01
2017-03-02T00:22:10.319Z,6.01
2017-03-02T00:22:14.970Z,6.01
2017-03-02T00:22:19.494Z,6.01
2017-03-02T00:22:24.176Z,6.01
2017-03-02T00:22:28.812Z,6.02
2017-03-02T00:22:33.468Z,6.01
2017-03-02T00:22:37.964Z,6.01
2017-03-02T00:22:42.617Z,6.02
2017-03-02T00:22:47.257Z,6.01
2017-03-02T00:22:51.765Z,6.01
2017-03-02T00:22:56.426Z,6.01
2017-03-02T00:23:01.076Z,6.01
2017-03-02T00:23:05.960Z,6.02
2017-03-02T00:23:10.600Z,6.03
2017-03-02T00:23:15.255Z,6.03
2017-03-02T00:23:19.900Z,6.02
2017-03-02T00:23:24.553Z,6.02
2017-03-02T00:23:29.061Z,6.02
2017-03-02T00:23:33.739Z,6.01
2017-03-02T00:23:38.228Z,6.03
2017-03-02T00:23:42.718Z,6.02
2017-03-02T00:23:47.415Z,6.03
2017-03-02T00:23:51.904Z,6.02
2017-03-02T00:23:56.542Z,6.02
2017-03-02T00:24:01.195Z,6.02
2017-03-02T00:24:06.222Z,6.02
2017-03-02T00:24:10.878Z,6.03
2017-03-02T00:24:15.257Z,6.03
2017-03-02T00:24:19.896Z,6.03
2017-03-02T00:24:24.381Z,6.03
2017-03-02T00:24:28.888Z,6.03
2017-03-02T00:24:33.530Z,6.03
2017-03-02T00:24:38.019Z,6.03
2017-03-02T00:24:42.662Z,6.03
2017-03-02T00:24:47.319Z,6.02
2017-03-02T00:24:51.824Z,6.03
2017-03-02T00:24:56.331Z,6.02
2017-03-02T00:25:00.968Z,6.02
2017-03-02T00:25:05.812Z,6.02
2017-03-02T00:25:10.456Z,6.02
2017-03-02T00:25:15.085Z,6.02
2017-03-02T00:25:19.748Z,6.03
2017-03-02T00:25:24.405Z,6.03
2017-03-02T00:25:28.757Z,6.02
2017-03-02T00:25:33.403Z,6.02
2017-03-02T00:25:38.042Z,6.02
2017-03-02T00:25:42.693Z,6.02
2017-03-02T00:25:47.379Z,6.02
2017-03-02T00:25:51.879Z,6.02
2017-03-02T00:25:56.357Z,6.02
2017-03-02T00:26:00.996Z,6.02
2017-03-02T00:26:05.724Z,6.02
2017-03-02T00:26:10.260Z,6.02
2017-03-02T00:26:14.910Z,6.02
2017-03-02T00:26:19.430Z,6.03
2017-03-02T00:26:24.091Z,6.02
2017-03-02T00:26:28.780Z,6.03
2017-03-02T00:26:33.484Z,6.03
2017-03-02T00:26:37.839Z,6.03
2017-03-02T00:26:42.484Z,6.03
2017-03-02T00:26:47.147Z,6.02
2017-03-02T00:26:51.797Z,6.03
2017-03-02T00:26:56.301Z,6.03
2017-03-02T00:27:00.941Z,6.03
2017-03-02T00:27:05.645Z,6.03
2017-03-02T00:27:10.301Z,6.03
2017-03-02T00:27:14.793Z,6.03
2017-03-02T00:27:19.497Z,6.03
2017-03-02T00:27:23.995Z,6.03
2017-03-02T00:27:28.191Z,6.03
2017-03-02T00:27:32.886Z,6.02
2017-03-02T00:27:37.388Z,6.03
2017-03-02T00:27:42.047Z,6.03
2017-03-02T00:27:46.705Z,6.04
2017-03-02T00:27:51.051Z,6.03
2017-03-02T00:27:55.555Z,6.03
2017-03-02T00:28:00.062Z,6.03
2017-03-02T00:28:04.705Z,6.04
2017-03-02T00:28:09.357Z,6.03
2017-03-02T00:28:13.861Z,6.03
2017-03-02T00:28:18.511Z,6.03
2017-03-02T00:28:23.154Z,6.04
2017-03-02T00:28:27.791Z,6.03
2017-03-02T00:28:32.287Z,6.03
2017-03-02T00:28:36.629Z,6.03
2017-03-02T00:28:41.300Z,6.03
2017-03-02T00:28:45.950Z,6.03
2017-03-02T00:28:50.302Z,6.02
2017-03-02T00:28:54.939Z,6.03
2017-03-02T00:28:59.582Z,6.03
2017-03-02T00:29:04.252Z,6.02
2017-03-02T00:29:08.908Z,6.04
2017-03-02T00:29:13.561Z,6.03
2017-03-02T00:29:18.212Z,6.03
2017-03-02T00:29:22.698Z,6.03
2017-03-02T00:29:27.222Z,6.03
2017-03-02T00:29:31.903Z,6.03
2017-03-02T00:29:36.563Z,6.03
2017-03-02T00:29:41.207Z,6.03
2017-03-02T00:29:45.864Z,6.04
2017-03-02T00:29:50.368Z,6.03
2017-03-02T00:29:54.876Z,6.03
2017-03-02T00:29:59.534Z,6.03
2017-03-02T00:30:04.133Z,6.03
2017-03-02T00:30:08.629Z,6.03
2017-03-02T00:30:12.995Z,6.03
2017-03-02T00:30:17.640Z,6.03
2017-03-02T00:30:22.137Z,6.04
2017-03-02T00:30:26.782Z,6.04
2017-03-02T00:30:31.449Z,6.04
2017-03-02T00:30:35.949Z,6.04
2017-03-02T00:30:40.593Z,6.03
2017-03-02T00:30:45.235Z,6.04
2017-03-02T00:30:49.620Z,6.04
2017-03-02T00:30:54.251Z,6.04
2017-03-02T00:30:58.763Z,6.04
2017-03-02T00:31:03.446Z,6.04
2017-03-02T00:31:08.096Z,6.04
2017-03-02T00:31:12.736Z,6.04
2017-03-02T00:31:17.247Z,6.04
2017-03-02T00:31:21.778Z,6.04
2017-03-02T00:31:26.417Z,6.04
2017-03-02T00:31:30.912Z,6.04
2017-03-02T00:31:35.395Z,6.04
2017-03-02T00:31:40.039Z,6.04
2017-03-02T00:31:44.735Z,6.04
2017-03-02T00:31:49.368Z,6.03
2017-03-02T00:31:54.047Z,6.03
2017-03-02T00:31:58.695Z,6.04
2017-03-02T00:32:03.361Z,6.03
2017-03-02T00:32:07.999Z,6.04
2017-03-02T00:32:12.662Z,6.03
2017-03-02T00:32:17.317Z,6.04
2017-03-02T00:32:21.955Z,6.04
2017-03-02T00:32:26.603Z,6.04
2017-03-02T00:32:31.088Z,6.03
2017-03-02T00:32:35.466Z,6.04
2017-03-02T00:32:39.942Z,6.04
2017-03-02T00:32:44.432Z,6.04
2017-03-02T00:32:49.088Z,6.03
2017-03-02T00:32:53.570Z,6.04
2017-03-02T00:32:58.247Z,6.03
2017-03-02T00:33:02.922Z,6.04
2017-03-02T00:33:07.575Z,6.04
2017-03-02T00:33:12.063Z,6.03
2017-03-02T00:33:16.704Z,6.03
2017-03-02T00:33:21.355Z,6.03
2017-03-02T00:33:26.005Z,6.03
2017-03-02T00:33:30.699Z,6.03
2017-03-02T00:33:35.358Z,6.03
2017-03-02T00:33:39.852Z,6.04
2017-03-02T00:33:44.388Z,6.03
2017-03-02T00:33:49.040Z,6.04
2017-03-02T00:33:53.546Z,6.03
2017-03-02T00:33:58.181Z,6.03
2017-03-02T00:34:03.118Z,6.02
2017-03-02T00:34:07.471Z,6.03
2017-03-02T00:34:11.952Z,6.03
2017-03-02T00:34:16.613Z,6.04
2017-03-02T00:34:21.117Z,6.03
2017-03-02T00:34:25.770Z,6.03
2017-03-02T00:34:30.313Z,6.03
2017-03-02T00:34:34.818Z,6.03
2017-03-02T00:34:39.500Z,6.04
2017-03-02T00:34:44.171Z,6.04
2017-03-02T00:34:48.811Z,6.04
2017-03-02T00:34:53.344Z,6.04
2017-03-02T00:34:57.857Z,6.04
2017-03-02T00:35:02.729Z,6.04
2017-03-02T00:35:07.231Z,6.04
2017-03-02T00:35:11.867Z,6.04
2017-03-02T00:35:16.513Z,6.04
2017-03-02T00:35:21.008Z,6.03
2017-03-02T00:35:25.347Z,6.04
2017-03-02T00:35:29.695Z,6.03
2017-03-02T00:35:34.347Z,6.04
2017-03-02T00:35:38.995Z,6.04
2017-03-02T00:35:43.633Z,6.04
2017-03-02T00:35:48.287Z,6.03
2017-03-02T00:35:52.782Z,6.04
2017-03-02T00:35:57.421Z,6.04
2017-03-02T00:36:02.049Z,6.03
2017-03-02T00:36:06.696Z,6.04
2017-03-02T00:36:11.352Z,6.04
2017-03-02T00:36:15.696Z,6.04
2017-03-02T00:36:20.202Z,6.04
2017-03-02T00:36:24.693Z,6.03
2017-03-02T00:36:29.222Z,6.04
2017-03-02T00:36:33.727Z,6.04
2017-03-02T00:36:38.365Z,6.04
2017-03-02T00:36:42.896Z,6.05
2017-03-02T00:36:47.553Z,6.04
2017-03-02T00:36:52.046Z,6.05
2017-03-02T00:36:56.695Z,6.05
2017-03-02T00:37:01.365Z,6.05
2017-03-02T00:37:06.040Z,6.05
2017-03-02T00:37:10.668Z,6.05
2017-03-02T00:37:15.169Z,6.04
2017-03-02T00:37:19.675Z,6.05
2017-03-02T00:37:24.178Z,6.04
2017-03-02T00:37:28.857Z,6.04
2017-03-02T00:37:33.494Z,6.05
2017-03-02T00:37:38.001Z,6.04
2017-03-02T00:37:42.530Z,6.05
2017-03-02T00:37:47.175Z,6.05
2017-03-02T00:37:51.821Z,6.04
2017-03-02T00:37:56.327Z,6.05
2017-03-02T00:38:00.983Z,6.04
2017-03-02T00:38:05.533Z,6.04
2017-03-02T00:38:10.026Z,6.04
2017-03-02T00:38:14.665Z,6.04
2017-03-02T00:38:19.014Z,6.04
2017-03-02T00:38:23.662Z,6.04
2017-03-02T00:38:28.318Z,6.04
2017-03-02T00:38:32.832Z,6.03
2017-03-02T00:38:37.483Z,6.04
2017-03-02T00:38:42.148Z,6.03
2017-03-02T00:38:46.803Z,6.04
2017-03-02T00:38:51.305Z,6.03
2017-03-02T00:38:55.947Z,6.03
2017-03-02T00:39:00.581Z,6.04
2017-03-02T00:39:05.227Z,6.04
2017-03-02T00:39:09.940Z,6.03
2017-03-02T00:39:14.291Z,6.04
2017-03-02T00:39:18.964Z,6.04
2017-03-02T00:39:23.622Z,6.05
2017-03-02T00:39:28.262Z,6.05
2017-03-02T00:39:32.930Z,6.04
2017-03-02T00:39:37.644Z,6.04
2017-03-02T00:39:42.276Z,6.04
2017-03-02T00:39:46.770Z,6.04
2017-03-02T00:39:51.415Z,6.04
2017-03-02T00:39:55.906Z,6.03
2017-03-02T00:40:00.546Z,6.04
2017-03-02T00:40:05.274Z,6.03
2017-03-02T00:40:09.900Z,6.03
2017-03-02T00:40:14.529Z,6.04
2017-03-02T00:40:19.158Z,6.03
2017-03-02T00:40:23.805Z,6.03
2017-03-02T00:40:28.330Z,6.03
2017-03-02T00:40:32.846Z,6.04
2017-03-02T00:40:37.510Z,6.04
2017-03-02T00:40:41.855Z,6.04
2017-03-02T00:40:46.497Z,6.04
2017-03-02T00:40:51.012Z,6.04
2017-03-02T00:40:55.533Z,6.04
2017-03-02T00:41:00.187Z,6.04
2017-03-02T00:41:04.927Z,6.03
2017-03-02T00:41:09.590Z,6.03
2017-03-02T00:41:13.968Z,6.04
2017-03-02T00:41:18.620Z,6.03
2017-03-02T00:41:23.121Z,6.03
2017-03-02T00:41:27.629Z,6.02
2017-03-02T00:41:32.257Z,6.03
2017-03-02T00:41:36.781Z,6.03
2017-03-02T00:41:41.282Z,6.03
2017-03-02T00:41:45.913Z,6.03
2017-03-02T00:41:50.268Z,6.02
2017-03-02T00:41:54.787Z,6.02
2017-03-02T00:41:59.290Z,6.02
2017-03-02T00:42:03.939Z,6.02
2017-03-02T00:42:08.444Z,6.03
2017-03-02T00:42:12.986Z,6.02
2017-03-02T00:42:17.504Z,6.02
2017-03-02T00:42:22.147Z,6.03
2017-03-02T00:42:26.660Z,6.02
2017-03-02T00:42:31.297Z,6.03
2017-03-02T00:42:35.801Z,6.03
2017-03-02T00:42:40.452Z,6.03
2017-03-02T00:42:44.940Z,6.03
2017-03-02T00:42:49.456Z,6.03
2017-03-02T00:42:54.101Z,6.04
2017-03-02T00:42:58.464Z,6.04
2017-03-02T00:43:03.207Z,6.04
2017-03-02T00:43:07.835Z,6.03
2017-03-02T00:43:12.338Z,6.04
2017-03-02T00:43:16.835Z,6.04
2017-03-02T00:43:21.340Z,6.04
2017-03-02T00:43:25.993Z,6.04
2017-03-02T00:43:30.479Z,6.03
2017-03-02T00:43:35.166Z,6.02
2017-03-02T00:43:39.829Z,6.03
2017-03-02T00:43:44.306Z,6.03
2017-03-02T00:43:48.951Z,6.03
2017-03-02T00:43:53.592Z,6.03
2017-03-02T00:43:58.269Z,6.03
2017-03-02T00:44:02.927Z,6.03
2017-03-02T00:44:07.579Z,6.03
2017-03-02T00:44:12.235Z,6.02
2017-03-02T00:44:16.754Z,6.02
2017-03-02T00:44:21.267Z,6.03
2017-03-02T00:44:25.757Z,6.03
2017-03-02T00:44:30.263Z,6.02
2017-03-02T00:44:34.773Z,6.03
2017-03-02T00:44:39.417Z,6.02
2017-03-02T00:44:43.916Z,6.03
2017-03-02T00:44:48.581Z,6.02
2017-03-02T00:44:53.233Z,6.02
2017-03-02T00:44:57.871Z,6.02
2017-03-02T00:45:02.880Z,6.03
2017-03-02T00:45:07.523Z,6.02
2017-03-02T00:45:12.035Z,6.03
2017-03-02T00:45:16.688Z,6.03
2017-03-02T00:45:21.324Z,6.03
2017-03-02T00:45:25.862Z,6.02
2017-03-02T00:45:30.496Z,6.03
2017-03-02T00:45:35.172Z,6.02
2017-03-02T00:45:39.832Z,6.03
2017-03-02T00:45:44.473Z,6.02
2017-03-02T00:45:48.977Z,6.02
2017-03-02T00:45:53.500Z,6.02
2017-03-02T00:45:58.138Z,6.01
2017-03-02T00:46:02.797Z,6.02
2017-03-02T00:46:07.283Z,6.02
2017-03-02T00:46:11.928Z,6.02
2017-03-02T00:46:16.616Z,6.02
2017-03-02T00:46:21.150Z,6.02
2017-03-02T00:46:25.663Z,6.02
2017-03-02T00:46:30.156Z,6.02
2017-03-02T00:46:34.666Z,6.02
2017-03-02T00:46:39.305Z,6.03
2017-03-02T00:46:43.982Z,6.03
2017-03-02T00:46:48.620Z,6.03
2017-03-02T00:46:53.275Z,6.03
2017-03-02T00:46:57.772Z,6.03
2017-03-02T00:47:02.445Z,6.02
2017-03-02T00:47:07.089Z,6.03
2017-03-02T00:47:11.729Z,6.03
2017-03-02T00:47:16.213Z,6.03
2017-03-02T00:47:20.842Z,6.03
2017-03-02T00:47:25.470Z,6.02
2017-03-02T00:47:29.815Z,6.03
2017-03-02T00:47:34.486Z,6.02
2017-03-02T00:47:38.973Z,6.03
2017-03-02T00:47:43.621Z,6.03
2017-03-02T00:47:48.109Z,6.03
2017-03-02T00:47:52.772Z,6.04
2017-03-02T00:47:57.428Z,6.03
2017-03-02T00:48:01.920Z,6.03
2017-03-02T00:48:06.565Z,6.03
2017-03-02T00:48:11.214Z,6.03
2017-03-02T00:48:15.847Z,6.03
2017-03-02T00:48:20.336Z,6.03
2017-03-02T00:48:24.993Z,6.03
2017-03-02T00:48:29.551Z,6.03
2017-03-02T00:48:34.214Z,6.03
2017-03-02T00:48:38.716Z,6.03
2017-03-02T00:48:43.366Z,6.04
2017-03-02T00:48:47.863Z,6.03
2017-03-02T00:48:52.366Z,6.03
2017-03-02T00:48:56.859Z,6.03
2017-03-02T00:49:01.513Z,6.03
2017-03-02T00:49:06.161Z,6.04
2017-03-02T00:49:10.801Z,6.03
2017-03-02T00:49:15.160Z,6.03
2017-03-02T00:49:19.694Z,6.04
2017-03-02T00:49:24.334Z,6.03
2017-03-02T00:49:28.986Z,6.04
2017-03-02T00:49:33.668Z,6.02
2017-03-02T00:49:38.309Z,6.04
2017-03-02T00:49:42.984Z,6.03
2017-03-02T00:49:47.643Z,6.05
2017-03-02T00:49:52.000Z,6.05
2017-03-02T00:49:56.514Z,6.05
2017-03-02T00:50:01.159Z,6.05
2017-03-02T00:50:05.641Z,6.04
2017-03-02T00:50:09.860Z,6.04
2017-03-02T00:50:14.512Z,6.04
2017-03-02T00:50:19.154Z,6.03
2017-03-02T00:50:23.660Z,6.04
2017-03-02T00:50:28.154Z,6.04
2017-03-02T00:50:32.368Z,6.05
2017-03-02T00:50:37.016Z,6.04
2017-03-02T00:50:41.686Z,6.04
2017-03-02T00:50:46.344Z,6.04
2017-03-02T00:50:51.004Z,6.04
2017-03-02T00:50:55.641Z,6.05
2017-03-02T00:51:00.148Z,6.04
2017-03-02T00:51:04.774Z,6.05
2017-03-02T00:51:09.314Z,6.05
2017-03-02T00:51:13.970Z,6.04
2017-03-02T00:51:18.496Z,6.04
2017-03-02T00:51:23.134Z,6.04
2017-03-02T00:51:27.668Z,6.04
2017-03-02T00:51:32.156Z,6.03
2017-03-02T00:51:36.818Z,6.05
2017-03-02T00:51:41.462Z,6.04
2017-03-02T00:51:46.114Z,6.04
2017-03-02T00:51:50.609Z,6.05
2017-03-02T00:51:54.824Z,6.05
2017-03-02T00:51:59.462Z,6.05
2017-03-02T00:52:04.199Z,6.05
2017-03-02T00:52:08.695Z,6.05
2017-03-02T00:52:13.364Z,6.04
2017-03-02T00:52:18.003Z,6.04
2017-03-02T00:52:22.646Z,6.05
2017-03-02T00:52:27.028Z,6.04
2017-03-02T00:52:31.526Z,6.05
2017-03-02T00:52:36.185Z,6.05
2017-03-02T00:52:40.696Z,6.04
2017-03-02T00:52:45.360Z,6.05
2017-03-02T00:52:50.002Z,6.05
2017-03-02T00:52:54.525Z,6.05
2017-03-02T00:52:59.189Z,6.05
2017-03-02T00:53:03.996Z,6.05
2017-03-02T00:53:08.646Z,6.05
2017-03-02T00:53:13.293Z,6.06
2017-03-02T00:53:17.944Z,6.06
2017-03-02T00:53:22.435Z,6.05
2017-03-02T00:53:26.945Z,6.05
2017-03-02T00:53:31.625Z,6.05
2017-03-02T00:53:36.150Z,6.06
2017-03-02T00:53:40.799Z,6.05
2017-03-02T00:53:45.491Z,6.05
2017-03-02T00:53:50.176Z,6.06
2017-03-02T00:53:54.831Z,6.06
2017-03-02T00:53:59.467Z,6.08
2017-03-02T00:54:04.322Z,6.07
2017-03-02T00:54:08.971Z,6.07
2017-03-02T00:54:13.467Z,6.06
2017-03-02T00:54:18.108Z,6.06
2017-03-02T00:54:22.747Z,6.06
2017-03-02T00:54:27.398Z,6.06
2017-03-02T00:54:32.052Z,6.07
2017-03-02T00:54:36.414Z,6.07
2017-03-02T00:54:40.826Z,6.07
2017-03-02T00:54:45.490Z,6.06
2017-03-02T00:54:49.988Z,6.06
2017-03-02T00:54:54.344Z,6.06
2017-03-02T00:54:58.837Z,6.06
2017-03-02T00:55:03.584Z,6.06
2017-03-02T00:55:08.095Z,6.06
2017-03-02T00:55:12.749Z,6.06
2017-03-02T00:55:17.384Z,6.07
2017-03-02T00:55:22.018Z,6.07
2017-03-02T00:55:26.357Z,6.08
2017-03-02T00:55:30.848Z,6.08
2017-03-02T00:55:35.504Z,6.07
2017-03-02T00:55:40.015Z,6.07
2017-03-02T00:55:44.668Z,6.07
2017-03-02T00:55:49.309Z,6.07
2017-03-02T00:55:53.805Z,6.07
2017-03-02T00:55:58.459Z,6.07
2017-03-02T00:56:03.365Z,6.08
2017-03-02T00:56:07.870Z,6.09
2017-03-02T00:56:12.219Z,6.08
2017-03-02T00:56:16.867Z,6.07
2017-03-02T00:56:21.386Z,6.08
2017-03-02T00:56:26.025Z,6.07
2017-03-02T00:56:30.686Z,6.08
2017-03-02T00:56:35.362Z,6.08
2017-03-02T00:56:39.875Z,6.08
2017-03-02T00:56:44.383Z,6.08
2017-03-02T00:56:49.032Z,6.08
2017-03-02T00:56:53.672Z,6.08
2017-03-02T00:56:58.301Z,6.08
2017-03-02T00:57:03.108Z,6.07
2017-03-02T00:57:07.744Z,6.08
2017-03-02T00:57:12.390Z,6.09
2017-03-02T00:57:17.018Z,6.08
2017-03-02T00:57:21.667Z,6.08
2017-03-02T00:57:26.323Z,6.08
2017-03-02T00:57:30.965Z,6.09
2017-03-02T00:57:35.469Z,6.09
2017-03-02T00:57:39.957Z,6.09
2017-03-02T00:57:44.603Z,6.08
2017-03-02T00:57:49.236Z,6.08
2017-03-02T00:57:53.765Z,6.09
2017-03-02T00:57:58.412Z,6.08
2017-03-02T00:58:02.906Z,6.08
2017-03-02T00:58:07.558Z,6.09
2017-03-02T00:58:12.215Z,6.08
2017-03-02T00:58:16.716Z,6.09
2017-03-02T00:58:21.224Z,6.09
2017-03-02T00:58:25.728Z,6.11
2017-03-02T00:58:30.383Z,6.08
2017-03-02T00:58:34.733Z,6.08
2017-03-02T00:58:39.385Z,6.09
2017-03-02T00:58:44.033Z,6.09
2017-03-02T00:58:48.700Z,6.1
2017-03-02T00:58:53.364Z,6.1
2017-03-02T00:58:57.849Z,6.08
2017-03-02T00:59:02.501Z,6.09
2017-03-02T00:59:07.170Z,6.09
2017-03-02T00:59:11.830Z,6.09
2017-03-02T00:59:16.315Z,6.09
2017-03-02T00:59:20.822Z,6.1
2017-03-02T00:59:25.535Z,6.1
2017-03-02T00:59:30.184Z,6.1
2017-03-02T00:59:34.687Z,6.09
2017-03-02T00:59:39.189Z,6.08
2017-03-02T00:59:43.854Z,6.1
2017-03-02T00:59:48.505Z,6.09
2017-03-02T00:59:52.872Z,6.1
2017-03-02T00:59:57.528Z,6.09
2017-03-02T01:00:02.173Z,6.09
2017-03-02T01:00:06.666Z,6.09
2017-03-02T01:00:11.314Z,6.1
2017-03-02T01:00:15.981Z,6.09
2017-03-02T01:00:20.630Z,6.09
2017-03-02T01:00:25.280Z,6.09
2017-03-02T01:00:29.806Z,6.1
2017-03-02T01:00:34.291Z,6.09
2017-03-02T01:00:38.809Z,6.09
2017-03-02T01:00:43.472Z,6.1
2017-03-02T01:00:48.119Z,6.1
2017-03-02T01:00:52.465Z,6.1
2017-03-02T01:00:56.961Z,6.11
2017-03-02T01:01:01.785Z,6.1
2017-03-02T01:01:06.421Z,6.09
2017-03-02T01:01:10.918Z,6.09
2017-03-02T01:01:15.585Z,6.09
2017-03-02T01:01:19.960Z,6.09
2017-03-02T01:01:24.633Z,6.1
2017-03-02T01:01:28.996Z,6.1
2017-03-02T01:01:33.706Z,6.1
2017-03-02T01:01:38.361Z,6.08
2017-03-02T01:01:43.018Z,6.08
2017-03-02T01:01:47.677Z,6.09
2017-03-02T01:01:52.049Z,6.08
2017-03-02T01:01:56.701Z,6.1
2017-03-02T01:02:01.343Z,6.09
2017-03-02T01:02:05.993Z,6.09
2017-03-02T01:02:10.636Z,6.1
2017-03-02T01:02:15.150Z,6.09
2017-03-02T01:02:19.686Z,6.09
2017-03-02T01:02:24.181Z,6.09